Аэропорт: Гостомель. Киев

ICAO: UKKM

METAR:
2019/01/21 23:00
UKKM 212300Z AUTO 24002MPS 9999 // NCD M08/M12 Q1021
METAR:
2019/01/21 12:09
TAF UKKM 211105Z 2112/2212 31004G09MPS 9999 BKN010 BKN020 TXM03/2112Z TNM11/2206Z 
      BECMG 2116/2118 27004MPS 6000 BKN007 
      TEMPO 2118/2206 2000 BR SCT005 
      BECMG 2206/2208 22004G09MPS